Time;durP1;ratioP1;P1;durP2;ratioP2;P2;SDS_P1;SDS_P2;PMS_P1;PMS_P2;Temp;Humidity;BMP_temperature;BMP_pressure;BME280_temperature;BME280_humidity;BME280_pressure;Samples;Min_cycle;Max_cycle;Signal;HPM_P1;HPM_P2
2021/06/24 00:01:14;;;;;;;4.23;2.80;;;11.90;99.90;;;;;;5118166;28;20203;-82
2021/06/24 00:03:41;;;;;;;2.70;2.50;;;11.90;99.90;;;;;;5118103;28;20537;-85
2021/06/24 00:06:08;;;;;;;4.50;2.53;;;11.80;99.90;;;;;;5118773;28;20196;-86
2021/06/24 00:08:35;;;;;;;3.97;2.37;;;11.80;99.90;;;;;;5118018;28;20215;-84
2021/06/24 00:11:04;;;;;;;5.70;2.50;;;11.80;99.90;;;;;;5118006;28;20523;-84
2021/06/24 00:13:31;;;;;;;7.03;2.60;;;11.80;99.90;;;;;;5117969;28;20625;-84
2021/06/24 00:15:58;;;;;;;3.97;2.80;;;11.80;99.90;;;;;;5117897;28;20196;-82
2021/06/24 00:18:27;;;;;;;3.77;2.87;;;11.80;99.90;;;;;;5118092;28;20197;-82
2021/06/24 00:20:53;;;;;;;3.17;2.60;;;11.80;99.90;;;;;;5117941;28;20204;-84
2021/06/24 00:23:20;;;;;;;5.10;2.70;;;11.80;99.90;;;;;;5118030;28;20203;-84
2021/06/24 00:25:48;;;;;;;3.00;2.70;;;11.70;99.90;;;;;;5118133;28;20207;-82
2021/06/24 00:28:16;;;;;;;3.10;2.73;;;11.80;99.90;;;;;;5118361;28;20223;-84
2021/06/24 00:30:43;;;;;;;4.97;2.93;;;11.70;99.90;;;;;;5117348;27;20659;-85
2021/06/24 00:33:11;;;;;;;4.70;3.00;;;11.70;99.90;;;;;;5117854;28;20203;-86
2021/06/24 00:35:39;;;;;;;3.57;2.53;;;11.70;99.90;;;;;;5116722;28;20196;-87
2021/06/24 00:38:06;;;;;;;3.73;2.43;;;11.70;99.90;;;;;;5117301;28;20211;-83
2021/06/24 00:40:36;;;;;;;2.77;2.37;;;11.70;99.90;;;;;;5117775;27;20196;-82
2021/06/24 00:43:04;;;;;;;5.77;2.87;;;11.70;99.90;;;;;;5117269;28;20199;-84
2021/06/24 00:45:31;;;;;;;3.90;2.57;;;11.60;99.90;;;;;;5117813;28;20196;-85
2021/06/24 00:47:58;;;;;;;3.70;3.23;;;11.60;99.90;;;;;;5117753;28;20222;-87
2021/06/24 00:50:25;;;;;;;3.10;2.40;;;11.60;99.90;;;;;;5116548;28;20199;-83
2021/06/24 00:52:53;;;;;;;5.40;2.40;;;11.50;99.90;;;;;;5117335;28;20211;-81
2021/06/24 00:55:39;;;;;;;2.83;2.40;;;11.50;99.90;;;;;;5117520;28;20522;-81
2021/06/24 00:58:06;;;;;;;4.00;2.40;;;11.50;99.90;;;;;;5117059;28;20192;-82
2021/06/24 01:00:33;;;;;;;5.03;3.00;;;11.50;99.90;;;;;;5117434;27;20196;-84
2021/06/24 01:03:00;;;;;;;3.17;2.87;;;11.50;99.90;;;;;;5117470;28;20211;-82
2021/06/24 01:05:27;;;;;;;2.43;2.23;;;11.50;99.90;;;;;;5121675;27;20584;-82
2021/06/24 01:07:55;;;;;;;2.70;2.50;;;11.40;99.90;;;;;;5137858;27;20219;-86
2021/06/24 01:10:23;;;;;;;3.10;2.63;;;11.40;99.90;;;;;;5137766;27;20223;-87
2021/06/24 01:12:50;;;;;;;3.27;2.80;;;11.40;99.90;;;;;;5137326;27;20196;-81
2021/06/24 01:15:17;;;;;;;4.73;3.40;;;11.40;99.90;;;;;;5131851;27;20203;-81
2021/06/24 01:17:44;;;;;;;5.67;3.97;;;11.40;99.90;;;;;;5116636;28;20203;-80
2021/06/24 01:20:12;;;;;;;3.33;3.00;;;11.30;99.90;;;;;;5116808;28;20210;-83
2021/06/24 01:22:39;;;;;;;5.03;4.20;;;11.30;99.90;;;;;;5117155;28;20203;-85
2021/06/24 01:25:08;;;;;;;5.83;3.30;;;11.30;99.90;;;;;;5127118;27;20271;-81
2021/06/24 01:27:35;;;;;;;3.77;3.10;;;11.20;99.90;;;;;;5128753;27;20199;-86
2021/06/24 01:30:02;;;;;;;5.40;4.00;;;11.20;99.90;;;;;;5137290;27;20602;-86
2021/06/24 01:32:29;;;;;;;6.03;3.93;;;11.20;99.90;;;;;;5124241;27;20207;-86
2021/06/24 01:34:56;;;;;;;4.50;3.90;;;11.10;99.90;;;;;;5116631;28;20200;-86
2021/06/24 01:37:23;;;;;;;3.87;3.23;;;11.10;99.90;;;;;;5116796;28;20203;-83
2021/06/24 01:39:50;;;;;;;3.90;3.53;;;11.00;99.90;;;;;;5115783;28;20480;-83
2021/06/24 01:42:18;;;;;;;5.70;3.93;;;11.00;99.90;;;;;;5117104;28;20188;-87
2021/06/24 01:44:45;;;;;;;3.50;3.17;;;11.00;99.90;;;;;;5123555;27;20219;-86
2021/06/24 01:47:12;;;;;;;3.70;3.37;;;11.00;99.90;;;;;;5136820;27;20195;-85
2021/06/24 01:49:40;;;;;;;3.73;3.43;;;11.00;99.90;;;;;;5137489;27;20322;-85
2021/06/24 01:52:07;;;;;;;4.10;3.70;;;11.00;99.90;;;;;;5127244;27;20526;-81
2021/06/24 01:54:34;;;;;;;3.47;3.17;;;10.90;99.90;;;;;;5116705;28;20192;-84
2021/06/24 01:57:01;;;;;;;3.83;3.53;;;10.90;99.90;;;;;;5117027;28;20206;-84
2021/06/24 01:59:32;;;;;;;5.93;4.47;;;10.90;99.90;;;;;;5132035;27;20210;-84
2021/06/24 02:01:59;;;;;;;6.70;4.30;;;10.90;99.90;;;;;;5136046;27;20195;-83
2021/06/24 02:04:29;;;;;;;4.73;3.80;;;10.90;99.90;;;;;;5136644;27;20191;-81
2021/06/24 02:06:56;;;;;;;5.30;4.10;;;10.90;99.90;;;;;;5123418;27;20226;-80
2021/06/24 02:09:23;;;;;;;4.33;3.93;;;10.80;99.90;;;;;;5115611;28;20643;-81
2021/06/24 02:11:49;;;;;;;6.83;3.83;;;10.80;99.90;;;;;;5095593;28;20224;-80
2021/06/24 02:14:16;;;;;;;3.97;3.67;;;10.80;99.90;;;;;;5095197;28;20596;-86
2021/06/24 02:16:44;;;;;;;4.57;4.27;;;10.80;99.90;;;;;;5095687;28;20200;-83
2021/06/24 02:19:11;;;;;;;5.63;4.43;;;10.70;99.90;;;;;;5095054;28;20205;-78
2021/06/24 02:21:38;;;;;;;6.37;4.73;;;10.70;99.90;;;;;;5115477;28;20610;-84
2021/06/24 02:24:05;;;;;;;4.57;4.10;;;10.70;99.90;;;;;;5115532;28;20207;-86
2021/06/24 02:26:32;;;;;;;5.93;4.40;;;10.70;99.90;;;;;;5115167;28;20610;-84
2021/06/24 02:28:59;;;;;;;5.30;4.80;;;10.60;99.90;;;;;;5115719;28;20222;-81
2021/06/24 02:31:27;;;;;;;6.07;5.47;;;10.70;99.90;;;;;;5115426;28;20215;-82
2021/06/24 02:33:56;;;;;;;6.10;5.07;;;10.60;99.90;;;;;;5116366;28;20223;-81
2021/06/24 02:36:23;;;;;;;6.73;5.53;;;10.60;99.90;;;;;;5115340;28;20208;-83
2021/06/24 02:38:50;;;;;;;8.07;5.53;;;10.60;99.90;;;;;;5115953;28;20459;-86
2021/06/24 02:41:16;;;;;;;6.80;6.10;;;10.60;99.90;;;;;;5116378;28;20202;-80
2021/06/24 02:43:43;;;;;;;5.30;4.80;;;10.60;99.90;;;;;;5115900;28;20200;-85
2021/06/24 02:46:10;;;;;;;7.10;4.50;;;10.60;99.90;;;;;;5115866;28;20199;-84
2021/06/24 02:48:37;;;;;;;5.30;4.87;;;10.50;99.90;;;;;;5115825;28;20227;-86
2021/06/24 02:51:06;;;;;;;7.67;5.33;;;10.60;99.90;;;;;;5117968;28;20207;-85
2021/06/24 02:53:33;;;;;;;6.13;4.80;;;10.50;99.90;;;;;;5136422;28;20214;-87
2021/06/24 02:56:00;;;;;;;6.13;5.37;;;10.60;99.90;;;;;;5136511;28;20222;-85
2021/06/24 02:58:27;;;;;;;5.50;5.00;;;10.50;99.90;;;;;;5126449;27;20200;-87
2021/06/24 03:00:53;;;;;;;7.23;5.33;;;10.50;99.90;;;;;;5119205;28;20592;-80
2021/06/24 03:03:20;;;;;;;6.73;6.03;;;10.50;99.90;;;;;;5119054;28;22286;-82
2021/06/24 03:05:47;;;;;;;7.70;5.93;;;10.50;99.90;;;;;;5119507;28;20220;-87
2021/06/24 03:08:15;;;;;;;6.53;5.60;;;10.50;99.90;;;;;;5119567;28;20200;-85
2021/06/24 03:10:42;;;;;;;8.40;6.47;;;10.50;99.90;;;;;;5119034;28;20239;-80
2021/06/24 03:13:09;;;;;;;5.57;5.07;;;10.50;99.90;;;;;;5119467;28;20214;-82
2021/06/24 03:15:36;;;;;;;5.40;4.90;;;10.40;99.90;;;;;;5119473;28;20195;-86
2021/06/24 03:18:03;;;;;;;5.63;4.07;;;10.40;99.90;;;;;;5119439;28;20230;-84
2021/06/24 03:20:30;;;;;;;5.13;4.33;;;10.40;99.90;;;;;;5118714;28;20192;-81
2021/06/24 03:22:58;;;;;;;4.60;4.20;;;10.40;99.90;;;;;;5119393;28;20200;-86
2021/06/24 03:25:26;;;;;;;5.40;4.90;;;10.40;99.90;;;;;;5118986;28;20203;-86
2021/06/24 03:27:53;;;;;;;5.57;4.67;;;10.50;99.90;;;;;;5136511;27;20203;-87
2021/06/24 03:30:21;;;;;;;5.97;5.10;;;10.50;99.90;;;;;;5139878;27;20230;-83
2021/06/24 03:32:49;;;;;;;5.60;4.60;;;10.50;99.90;;;;;;5137769;27;20249;-83
2021/06/24 03:35:16;;;;;;;4.63;4.23;;;10.50;99.90;;;;;;5139730;27;20264;-87
2021/06/24 03:37:43;;;;;;;5.47;4.73;;;10.50;99.90;;;;;;5139618;27;20218;-86
2021/06/24 03:40:16;;;;;;;5.70;5.17;;;10.60;99.90;;;;;;5124890;27;20204;-85
2021/06/24 03:42:44;;;;;;;6.57;5.13;;;10.60;99.90;;;;;;5119339;28;20195;-86
2021/06/24 03:45:12;;;;;;;7.30;4.93;;;10.60;99.90;;;;;;5118697;28;20243;-87
2021/06/24 03:47:41;;;;;;;5.13;4.73;;;10.60;99.90;;;;;;5119235;28;20199;-84
2021/06/24 03:50:10;;;;;;;6.50;5.53;;;10.60;99.90;;;;;;5118578;28;20216;-83
2021/06/24 03:52:36;;;;;;;6.40;5.60;;;10.60;99.90;;;;;;5118894;28;20196;-82
2021/06/24 03:55:04;;;;;;;6.73;5.73;;;10.60;99.90;;;;;;5118800;28;20207;-87
2021/06/24 03:57:31;;;;;;;7.40;5.63;;;10.60;99.90;;;;;;5113936;28;20212;-86
2021/06/24 03:59:59;;;;;;;7.60;5.80;;;10.60;99.90;;;;;;5097931;28;20506;-86
2021/06/24 04:02:26;;;;;;;5.93;5.00;;;10.60;99.90;;;;;;5098397;28;20197;-86
2021/06/24 04:04:52;;;;;;;4.73;4.33;;;10.60;99.90;;;;;;5117789;28;20208;-86
2021/06/24 04:07:19;;;;;;;4.43;3.93;;;10.60;99.90;;;;;;5118605;27;20200;-83
2021/06/24 04:09:46;;;;;;;5.37;4.83;;;10.70;99.90;;;;;;5118353;28;20236;-86
2021/06/24 04:12:13;;;;;;;7.13;5.90;;;10.70;99.90;;;;;;5118486;28;20216;-84
2021/06/24 04:14:40;;;;;;;6.83;4.90;;;10.80;99.90;;;;;;5118508;28;20203;-85
2021/06/24 04:17:08;;;;;;;5.80;4.67;;;10.80;99.90;;;;;;5118150;28;20215;-86
2021/06/24 04:19:35;;;;;;;5.30;4.80;;;10.90;99.90;;;;;;5118789;28;20192;-86
2021/06/24 04:22:02;;;;;;;6.07;5.50;;;11.00;99.90;;;;;;5117978;28;20195;-86
2021/06/24 04:24:28;;;;;;;5.80;5.23;;;11.10;99.90;;;;;;5118035;28;20208;-85
2021/06/24 04:26:55;;;;;;;6.03;5.47;;;11.20;99.90;;;;;;5118171;28;20184;-85
2021/06/24 04:29:22;;;;;;;8.00;6.07;;;11.30;99.90;;;;;;5117666;28;20325;-82
2021/06/24 04:31:49;;;;;;;7.63;5.33;;;11.40;99.90;;;;;;5117891;28;20196;-83
2021/06/24 04:34:17;;;;;;;5.73;5.13;;;11.50;99.90;;;;;;5117670;28;20196;-84
2021/06/24 04:36:44;;;;;;;5.47;4.90;;;11.50;99.90;;;;;;5117585;28;20184;-84
2021/06/24 04:39:12;;;;;;;5.93;5.33;;;11.50;99.90;;;;;;5117776;28;20320;-82
2021/06/24 04:41:39;;;;;;;5.67;5.27;;;11.50;99.90;;;;;;5117371;28;20200;-85
2021/06/24 04:44:06;;;;;;;4.63;4.23;;;11.50;99.90;;;;;;5117477;28;20295;-86
2021/06/24 04:46:33;;;;;;;6.40;5.80;;;11.50;99.90;;;;;;5118026;28;20526;-86
2021/06/24 04:49:00;;;;;;;5.50;5.00;;;11.60;99.90;;;;;;5117787;28;20220;-81
2021/06/24 04:51:28;;;;;;;6.20;5.60;;;11.70;99.90;;;;;;5117465;28;20204;-81
2021/06/24 04:53:55;;;;;;;6.17;5.17;;;11.80;99.90;;;;;;5117336;28;20215;-81
2021/06/24 04:56:22;;;;;;;6.93;5.60;;;12.10;99.90;;;;;;5116949;28;20184;-81
2021/06/24 04:58:48;;;;;;;7.00;4.97;;;12.40;99.90;;;;;;5117119;28;20203;-86
2021/06/24 05:01:15;;;;;;;7.40;4.67;;;12.90;99.90;;;;;;5117431;28;20198;-86
2021/06/24 05:03:42;;;;;;;7.30;4.60;;;13.30;99.90;;;;;;5117226;28;20197;-85
2021/06/24 05:06:10;;;;;;;3.70;3.37;;;13.80;99.90;;;;;;5117748;28;20219;-84
2021/06/24 05:08:38;;;;;;;5.07;2.83;;;14.30;99.90;;;;;;5117360;28;20639;-84
2021/06/24 05:11:05;;;;;;;4.97;2.97;;;14.70;99.90;;;;;;5116464;28;20554;-86
2021/06/24 05:13:33;;;;;;;4.23;2.70;;;15.20;99.90;;;;;;5117317;28;20199;-83
2021/06/24 05:16:00;;;;;;;3.50;2.43;;;15.60;99.90;;;;;;5117181;28;20200;-82
2021/06/24 05:18:27;;;;;;;5.00;2.40;;;16.00;99.90;;;;;;5115415;28;20518;-86
2021/06/24 05:20:54;;;;;;;6.93;2.23;;;16.40;99.90;;;;;;5116561;28;20203;-85
2021/06/24 05:23:21;;;;;;;3.13;1.90;;;16.70;99.90;;;;;;5116979;28;20200;-82
2021/06/24 05:25:49;;;;;;;2.77;1.70;;;17.10;99.90;;;;;;5116649;28;20184;-84
2021/06/24 05:28:16;;;;;;;2.58;1.85;;;17.40;99.90;;;;;;5134385;27;20203;-84
2021/06/24 05:30:44;;;;;;;2.50;1.67;;;17.70;99.90;;;;;;5130585;27;20227;-83
2021/06/24 05:33:11;;;;;;;4.97;1.90;;;18.00;99.90;;;;;;5095058;28;20283;-85
2021/06/24 05:35:38;;;;;;;3.47;1.63;;;18.10;99.90;;;;;;5116795;28;20241;-87
2021/06/24 05:38:08;;;;;;;3.75;1.55;;;18.30;99.90;;;;;;5116259;28;20199;-85
2021/06/24 05:40:35;;;;;;;3.20;1.63;;;18.30;99.90;;;;;;5115566;28;20468;-85
2021/06/24 05:43:03;;;;;;;3.53;1.88;;;18.00;99.90;;;;;;5096422;28;20196;-87
2021/06/24 05:45:30;;;;;;;2.60;1.85;;;17.90;99.90;;;;;;5116352;27;20203;-87
2021/06/24 05:47:57;;;;;;;5.60;1.67;;;17.80;99.90;;;;;;5109422;22;20241;-86
2021/06/24 05:50:25;;;;;;;2.63;1.80;;;17.80;99.90;;;;;;5074582;28;20225;-85
2021/06/24 05:52:53;;;;;;;4.35;1.90;;;18.10;99.90;;;;;;5055856;28;20205;-83
2021/06/24 05:55:20;;;;;;;3.72;1.70;;;18.40;99.90;;;;;;5056555;28;20214;-86
2021/06/24 05:57:47;;;;;;;5.68;1.90;;;18.70;99.90;;;;;;5061852;28;20593;-84
2021/06/24 06:00:16;;;;;;;5.82;2.22;;;18.80;99.90;;;;;;5075396;28;20852;-86
2021/06/24 06:02:42;;;;;;;6.32;2.00;;;18.70;99.90;;;;;;5075654;28;20196;-86
2021/06/24 06:05:10;;;;;;;3.97;1.70;;;18.70;99.90;;;;;;5065854;28;20205;-85
2021/06/24 06:07:37;;;;;;;4.05;1.65;;;18.50;99.90;;;;;;5055745;28;20506;-86
2021/06/24 06:10:05;;;;;;;3.85;1.77;;;18.40;99.90;;;;;;5058229;28;20225;-83
2021/06/24 06:12:31;;;;;;;4.97;1.60;;;18.60;99.90;;;;;;5075592;28;20459;-85
2021/06/24 06:14:58;;;;;;;2.42;1.23;;;19.00;99.90;;;;;;5085082;28;20612;-86
2021/06/24 06:17:26;;;;;;;1.85;1.20;;;19.40;99.90;;;;;;5095748;28;20215;-84
2021/06/24 06:19:53;;;;;;;4.05;1.70;;;19.80;99.90;;;;;;5096022;28;20201;-86
2021/06/24 06:22:19;;;;;;;2.55;1.52;;;20.00;99.90;;;;;;5079489;28;20201;-84
2021/06/24 06:24:46;;;;;;;3.95;1.40;;;20.00;99.90;;;;;;5075831;28;20201;-89
2021/06/24 06:27:13;;;;;;;4.57;1.40;;;20.10;99.90;;;;;;5075533;28;20208;-86
2021/06/24 06:29:40;;;;;;;4.53;1.30;;;20.30;99.90;;;;;;5075677;28;20233;-84
2021/06/24 06:32:07;;;;;;;3.50;1.30;;;20.30;99.90;;;;;;5089471;28;20208;-86
2021/06/24 06:34:35;;;;;;;3.00;1.60;;;20.40;99.90;;;;;;5099455;28;20670;-84
2021/06/24 06:37:02;;;;;;;4.18;1.15;;;20.60;99.90;;;;;;5099793;28;20209;-90
2021/06/24 06:39:29;;;;;;;2.72;1.33;;;20.80;99.90;;;;;;5099992;28;20192;-84
2021/06/24 06:41:56;;;;;;;6.65;1.90;;;20.90;99.90;;;;;;5099465;28;20200;-85
2021/06/24 06:44:22;;;;;;;4.15;1.63;;;21.00;99.90;;;;;;5100043;28;20203;-86
2021/06/24 06:46:49;;;;;;;1.98;1.30;;;21.30;99.90;;;;;;5081923;28;20270;-84
2021/06/24 06:49:17;;;;;;;1.60;1.25;;;21.50;99.90;;;;;;5079154;28;20201;-84
2021/06/24 06:51:45;;;;;;;1.95;1.40;;;21.60;99.90;;;;;;5079501;28;20292;-84
2021/06/24 06:54:12;;;;;;;3.42;1.17;;;21.40;99.90;;;;;;5079086;28;20201;-86
2021/06/24 06:56:38;;;;;;;2.47;1.35;;;21.50;99.90;;;;;;5078832;28;20204;-85
2021/06/24 06:59:06;;;;;;;3.40;1.40;;;21.60;99.90;;;;;;5078963;28;20508;-86
2021/06/24 07:01:33;;;;;;;2.42;1.30;;;22.00;99.90;;;;;;5079295;28;20194;-85
2021/06/24 07:04:00;;;;;;;4.30;1.52;;;22.30;99.90;;;;;;5078752;28;20197;-86
2021/06/24 07:06:28;;;;;;;3.90;1.40;;;22.30;99.90;;;;;;5079303;28;20578;-84
2021/06/24 07:08:56;;;;;;;2.60;1.23;;;22.10;99.90;;;;;;5078756;28;20208;-86
2021/06/24 07:11:23;;;;;;;4.28;1.35;;;21.60;99.90;;;;;;5078632;28;20229;-86
2021/06/24 07:13:50;;;;;;;1.55;1.10;;;21.20;99.90;;;;;;5095815;28;20215;-85
2021/06/24 07:16:17;;;;;;;1.58;1.48;;;20.90;99.90;;;;;;5099289;28;20537;-83
2021/06/24 07:18:44;;;;;;;1.35;1.17;;;20.60;99.90;;;;;;5099098;28;20193;-85
2021/06/24 07:21:11;;;;;;;2.85;1.40;;;20.20;99.90;;;;;;5099006;28;20197;-86
2021/06/24 07:23:38;;;;;;;2.97;1.10;;;19.80;99.90;;;;;;5079709;28;20210;-86
2021/06/24 07:26:07;;;;;;;2.78;1.10;;;19.90;99.90;;;;;;5078330;28;20204;-82
2021/06/24 07:28:34;;;;;;;4.03;1.40;;;19.80;99.90;;;;;;5078053;28;20209;-81
2021/06/24 07:31:01;;;;;;;3.88;1.70;;;19.70;99.90;;;;;;5077611;28;20327;-81
2021/06/24 07:33:28;;;;;;;3.72;1.60;;;20.20;99.90;;;;;;5077994;28;20529;-81
2021/06/24 07:35:54;;;;;;;3.35;1.25;;;20.70;99.90;;;;;;5077637;28;20197;-81
2021/06/24 07:38:21;;;;;;;1.65;1.15;;;21.30;99.90;;;;;;5077513;28;20204;-81
2021/06/24 07:40:48;;;;;;;2.65;1.40;;;21.80;99.90;;;;;;5077976;28;20198;-83
2021/06/24 07:43:16;;;;;;;2.60;1.10;;;22.00;99.90;;;;;;5077265;28;20503;-82
2021/06/24 07:45:43;;;;;;;3.38;1.20;;;21.90;99.90;;;;;;5077248;28;20236;-81
2021/06/24 07:48:10;;;;;;;1.48;1.13;;;21.90;99.90;;;;;;5077449;28;20245;-80
2021/06/24 07:50:38;;;;;;;2.47;1.30;;;21.70;99.90;;;;;;5077940;28;20255;-81
2021/06/24 07:53:05;;;;;;;2.92;1.23;;;21.60;99.90;;;;;;5077329;28;20209;-82
2021/06/24 07:55:35;;;;;;;2.83;1.40;;;21.10;99.90;;;;;;5077459;28;20228;-83
2021/06/24 07:58:02;;;;;;;2.78;1.00;;;20.90;99.90;;;;;;5078105;28;20194;-80
2021/06/24 08:00:32;;;;;;;1.20;0.88;;;20.80;99.90;;;;;;5077299;28;20605;-82
2021/06/24 08:02:59;;;;;;;1.83;0.90;;;20.70;99.90;;;;;;5083020;28;20200;-82
2021/06/24 08:05:26;;;;;;;1.55;1.02;;;20.70;99.90;;;;;;5098316;28;20200;-83
2021/06/24 08:07:53;;;;;;;4.00;1.20;;;20.70;99.90;;;;;;5095972;28;20207;-83
2021/06/24 08:10:21;;;;;;;2.10;1.67;;;20.70;99.90;;;;;;5097561;28;20514;-81
2021/06/24 08:12:49;;;;;;;1.70;1.10;;;20.50;99.90;;;;;;5097452;28;20200;-82
2021/06/24 08:15:18;;;;;;;2.13;0.90;;;20.30;99.90;;;;;;5095411;28;20203;-79
2021/06/24 08:17:47;;;;;;;1.80;1.00;;;20.10;99.90;;;;;;5077682;28;20594;-83
2021/06/24 08:20:16;;;;;;;5.57;1.40;;;19.90;99.90;;;;;;5077231;28;20209;-83
2021/06/24 08:22:43;;;;;;;2.40;1.20;;;20.00;99.90;;;;;;5077383;28;20221;-86
2021/06/24 08:25:11;;;;;;;3.42;1.10;;;20.00;99.90;;;;;;5077492;28;20198;-83
2021/06/24 08:27:39;;;;;;;4.10;1.10;;;19.60;99.90;;;;;;5077200;28;20200;-81
2021/06/24 08:30:07;;;;;;;4.50;1.30;;;19.50;99.90;;;;;;5077394;28;20675;-82
2021/06/24 08:32:34;;;;;;;1.67;1.08;;;19.40;99.90;;;;;;5077025;28;20190;-82
2021/06/24 08:35:02;;;;;;;3.88;1.05;;;19.60;99.90;;;;;;5076731;28;20205;-81
2021/06/24 08:37:29;;;;;;;2.03;1.20;;;19.70;99.90;;;;;;5077258;28;20206;-81
2021/06/24 08:39:56;;;;;;;1.85;1.00;;;19.50;99.90;;;;;;5077081;28;20292;-85
2021/06/24 08:42:23;;;;;;;1.98;1.08;;;19.40;99.90;;;;;;5092397;28;20204;-81
2021/06/24 08:44:50;;;;;;;2.22;1.20;;;19.50;99.90;;;;;;5097054;28;20592;-83
2021/06/24 08:47:17;;;;;;;3.05;0.93;;;19.30;99.90;;;;;;5096830;28;20232;-80
2021/06/24 08:49:44;;;;;;;1.00;1.00;;;19.40;99.90;;;;;;5081685;28;20197;-81
2021/06/24 08:52:13;;;;;;;2.28;1.10;;;19.50;99.90;;;;;;5076543;28;20225;-81
2021/06/24 08:54:39;;;;;;;2.15;1.20;;;19.40;99.90;;;;;;5082178;28;20204;-82
2021/06/24 08:57:07;;;;;;;3.03;1.40;;;19.40;99.90;;;;;;5095588;28;20219;-80
2021/06/24 08:59:33;;;;;;;5.72;1.70;;;19.50;99.90;;;;;;5096924;28;20207;-81
2021/06/24 09:02:01;;;;;;;2.38;1.10;;;20.00;99.90;;;;;;5096623;28;20215;-80
2021/06/24 09:04:29;;;;;;;3.30;1.25;;;20.00;99.90;;;;;;5096649;28;20219;-85
2021/06/24 09:07:07;;;;;;;3.92;1.70;;;20.10;99.90;;;;;;5096746;28;20195;-82
2021/06/24 09:09:39;;;;;;;3.10;1.20;;;20.20;99.90;;;;;;5096386;28;20193;-83
2021/06/24 09:12:08;;;;;;;4.03;1.40;;;20.20;99.90;;;;;;5080076;28;20229;-84
2021/06/24 09:14:43;;;;;;;2.38;1.38;;;20.00;99.90;;;;;;5076092;28;20196;-83
2021/06/24 09:17:11;;;;;;;2.08;1.02;;;20.10;99.90;;;;;;5082051;28;20188;-81
2021/06/24 09:19:42;;;;;;;3.15;1.30;;;20.00;99.90;;;;;;5096289;28;20597;-79
2021/06/24 09:22:11;;;;;;;2.40;1.20;;;19.80;99.90;;;;;;5088689;28;20272;-84
2021/06/24 09:24:41;;;;;;;3.22;1.55;;;19.80;99.90;;;;;;5075878;28;20208;-82
2021/06/24 09:27:25;;;;;;;2.20;1.30;;;19.90;99.90;;;;;;5075851;28;20512;-81
2021/06/24 09:29:53;;;;;;;3.08;1.33;;;19.90;99.90;;;;;;5076028;28;20213;-84
2021/06/24 09:32:31;;;;;;;2.60;1.30;;;19.90;99.90;;;;;;5075708;28;20225;-84
2021/06/24 09:35:00;;;;;;;2.95;1.80;;;19.50;99.90;;;;;;5075985;28;20262;-82
2021/06/24 09:37:27;;;;;;;1.52;1.27;;;19.20;99.90;;;;;;5096023;28;20278;-84
2021/06/24 09:39:56;;;;;;;2.30;1.52;;;19.20;99.90;;;;;;5096212;28;20196;-84
2021/06/24 09:42:24;;;;;;;1.70;1.30;;;19.20;99.90;;;;;;5096360;28;20192;-87
2021/06/24 09:44:51;;;;;;;2.10;1.58;;;19.30;99.90;;;;;;5077076;28;20229;-86
2021/06/24 09:47:21;;;;;;;2.72;1.70;;;19.60;99.90;;;;;;5075833;28;20317;-84
2021/06/24 09:49:59;;;;;;;2.33;1.50;;;19.90;99.90;;;;;;5075687;28;20228;-78
2021/06/24 09:52:26;;;;;;;3.55;1.50;;;19.90;99.90;;;;;;5075661;28;20217;-82
2021/06/24 09:55:08;;;;;;;3.30;1.50;;;19.90;99.90;;;;;;5076128;28;20224;-85
2021/06/24 09:57:36;;;;;;;3.00;1.30;;;19.70;99.90;;;;;;5076031;28;20623;-83
2021/06/24 10:00:20;;;;;;;2.25;1.60;;;19.80;99.90;;;;;;5075280;28;20212;-84
2021/06/24 10:03:07;;;;;;;2.58;1.58;;;20.30;99.90;;;;;;5076137;28;20345;-82
2021/06/24 10:05:35;;;;;;;2.92;1.35;;;20.50;99.90;;;;;;5075973;28;20201;-85
2021/06/24 10:08:03;;;;;;;5.60;1.40;;;20.70;99.90;;;;;;5095576;28;20204;-80
2021/06/24 10:10:31;;;;;;;2.35;1.48;;;20.70;99.90;;;;;;5095940;28;20219;-81
2021/06/24 10:12:58;;;;;;;2.22;1.67;;;21.20;99.90;;;;;;5095581;28;20211;-84
2021/06/24 10:15:25;;;;;;;3.85;1.70;;;21.40;99.90;;;;;;5087993;28;20216;-82
2021/06/24 10:17:54;;;;;;;3.63;1.58;;;21.90;99.90;;;;;;5075448;28;20219;-84
2021/06/24 10:20:22;;;;;;;3.38;1.30;;;21.90;99.90;;;;;;5074849;28;20197;-79
2021/06/24 10:22:57;;;;;;;2.92;1.70;;;22.40;99.90;;;;;;5074675;28;20605;-79
2021/06/24 10:25:25;;;;;;;2.28;0.93;;;22.40;99.90;;;;;;5075036;28;20184;-78
2021/06/24 10:27:56;;;;;;;2.38;0.73;;;22.90;99.90;;;;;;5074426;28;20198;-78
2021/06/24 10:30:24;;;;;;;1.92;0.70;;;23.30;99.90;;;;;;5074401;28;20505;-80
2021/06/24 10:33:00;;;;;;;3.58;1.00;;;23.70;99.90;;;;;;5074772;28;20201;-81
2021/06/24 10:35:29;;;;;;;2.30;1.13;;;23.60;99.90;;;;;;5082972;28;20588;-83
2021/06/24 10:37:57;;;;;;;1.92;0.90;;;23.30;99.90;;;;;;5094904;28;20208;-76
2021/06/24 10:40:30;;;;;;;1.92;1.00;;;23.10;99.90;;;;;;5094765;28;20208;-77
2021/06/24 10:42:59;;;;;;;1.67;1.00;;;22.70;99.90;;;;;;5094523;28;20239;-81
2021/06/24 10:45:28;;;;;;;4.55;1.20;;;22.30;99.90;;;;;;5095082;28;20499;-77
2021/06/24 10:47:56;;;;;;;1.48;0.95;;;22.30;99.90;;;;;;5094079;28;20223;-77
2021/06/24 10:50:44;;;;;;;3.80;1.15;;;22.10;99.90;;;;;;5092051;28;20196;-78
2021/06/24 10:53:49;;;;;;;2.20;1.10;;;21.90;99.90;;;;;;5074840;28;20219;-78
2021/06/24 10:56:41;;;;;;;1.77;1.33;;;21.60;99.90;;;;;;5076499;28;20204;-78
2021/06/24 10:59:25;;;;;;;1.30;1.00;;;21.40;99.90;;;;;;5095162;28;20193;-80
2021/06/24 11:01:52;;;;;;;2.17;1.00;;;21.80;99.90;;;;;;5092688;28;20196;-83
2021/06/24 11:04:37;;;;;;;2.25;1.08;;;22.00;99.90;;;;;;5095411;28;20199;-80
2021/06/24 11:07:40;;;;;;;4.97;1.77;;;22.20;99.90;;;;;;5082021;28;20212;-78
2021/06/24 11:10:26;;;;;;;2.20;1.10;;;22.20;99.90;;;;;;5053705;28;20511;-82
2021/06/24 11:12:58;;;;;;;3.45;1.35;;;22.20;99.90;;;;;;5074488;28;20225;-80
2021/06/24 11:15:58;;;;;;;1.58;1.10;;;22.50;99.90;;;;;;5074851;28;20197;-82
2021/06/24 11:18:49;;;;;;;1.35;0.85;;;22.70;99.90;;;;;;5075322;28;20213;-79
2021/06/24 11:21:35;;;;;;;3.63;1.08;;;22.80;99.90;;;;;;5078051;28;20465;-80
2021/06/24 11:24:03;;;;;;;3.60;1.05;;;23.00;99.90;;;;;;5077283;28;20220;-83
2021/06/24 11:26:31;;;;;;;2.38;0.93;;;23.20;99.90;;;;;;5078175;28;20186;-79
2021/06/24 11:29:01;;;;;;;2.60;1.00;;;23.20;99.90;;;;;;5078543;28;20209;-81
2021/06/24 11:31:40;;;;;;;1.80;0.95;;;23.30;99.90;;;;;;5077954;28;20233;-80
2021/06/24 11:34:14;;;;;;;2.63;1.10;;;23.30;99.90;;;;;;5077830;28;20205;-79
2021/06/24 11:36:47;;;;;;;2.92;0.90;;;23.40;99.90;;;;;;5077372;28;20596;-79
2021/06/24 11:39:22;;;;;;;2.00;1.00;;;23.50;99.90;;;;;;5078096;28;20274;-79
2021/06/24 11:41:52;;;;;;;1.27;1.00;;;23.40;99.90;;;;;;5078253;28;20254;-80
2021/06/24 11:44:24;;;;;;;1.88;0.80;;;23.30;99.90;;;;;;5077833;28;20605;-80
2021/06/24 11:46:57;;;;;;;2.55;0.80;;;23.00;99.90;;;;;;5077864;28;20186;-80
2021/06/24 12:00:23;;;;;;;1.88;0.90;;;23.00;99.90;;;;;;5077920;28;20483;-80
2021/06/24 12:00:52;;;;;;;1.40;0.80;;;23.20;99.90;;;;;;5077299;28;20188;-80
2021/06/24 12:03:21;;;;;;;1.20;0.80;;;23.50;99.90;;;;;;5077345;28;20205;-84
2021/06/24 12:05:52;;;;;;;3.13;0.90;;;23.80;99.90;;;;;;5080567;28;20220;-84
2021/06/24 12:08:23;;;;;;;2.30;0.88;;;23.50;99.90;;;;;;5097770;28;20196;-86
2021/06/24 12:10:51;;;;;;;1.77;1.00;;;23.50;99.90;;;;;;5082431;28;20225;-82
2021/06/24 12:13:30;;;;;;;2.50;0.95;;;23.60;99.90;;;;;;5076656;28;20637;-82
2021/06/24 12:15:59;;;;;;;2.10;0.90;;;23.50;99.90;;;;;;5077507;28;20558;-82
2021/06/24 12:18:38;;;;;;;1.48;0.88;;;23.50;99.90;;;;;;5077151;28;20212;-79
2021/06/24 12:21:07;;;;;;;1.15;0.90;;;23.40;99.90;;;;;;5076805;28;20194;-79
2021/06/24 12:23:40;;;;;;;1.35;1.23;;;23.30;99.90;;;;;;5077011;28;20201;-78
2021/06/24 12:26:07;;;;;;;2.55;0.90;;;23.20;99.90;;;;;;5076270;28;21012;-81
2021/06/24 12:28:34;;;;;;;3.60;0.90;;;23.00;99.90;;;;;;5077314;28;20196;-79
2021/06/24 12:31:00;;;;;;;2.67;1.15;;;23.00;99.90;;;;;;5076670;28;20197;-82
2021/06/24 12:33:29;;;;;;;1.23;1.10;;;23.00;99.90;;;;;;5075681;28;20200;-79
2021/06/24 12:35:57;;;;;;;2.05;0.88;;;22.80;99.90;;;;;;5076956;28;20208;-83
2021/06/24 12:38:26;;;;;;;1.20;0.93;;;22.60;99.90;;;;;;5076472;28;20616;-82
2021/06/24 12:40:55;;;;;;;3.88;1.08;;;22.70;99.90;;;;;;5076510;28;20201;-79
2021/06/24 12:43:23;;;;;;;1.42;0.80;;;22.80;99.90;;;;;;5080469;28;20283;-79
2021/06/24 12:45:53;;;;;;;2.53;0.90;;;22.80;99.90;;;;;;5096628;28;20303;-78
2021/06/24 12:48:28;;;;;;;2.17;1.00;;;22.80;99.90;;;;;;5095762;28;20682;-79
2021/06/24 12:50:57;;;;;;;1.90;0.93;;;22.70;99.90;;;;;;5096702;28;20496;-79
2021/06/24 12:53:36;;;;;;;1.83;0.80;;;22.50;99.90;;;;;;5095951;28;20620;-79
2021/06/24 12:56:06;;;;;;;3.13;0.98;;;22.50;99.90;;;;;;5095096;28;20499;-79
2021/06/24 12:58:36;;;;;;;3.78;1.00;;;22.60;99.90;;;;;;5076382;28;20198;-79
2021/06/24 13:01:13;;;;;;;1.83;1.00;;;22.60;99.90;;;;;;5075757;28;20205;-80
2021/06/24 13:03:42;;;;;;;2.00;0.80;;;22.70;99.90;;;;;;5076103;28;20262;-82
2021/06/24 13:06:14;;;;;;;3.42;1.00;;;22.70;99.90;;;;;;5076395;28;20198;-84